メインページ
METAR-TAF:

METAR-TAF

空港 :

重慶, 中華人民共和国

重慶江北国際空港

緯度: 29-31N, 経度: 106-29E, 海抜: 351m

現時点の気象観測

当レポートは1時間3分前の04:00(UTC)に作成
西/北西の風 6kt、西から北西の間で変化する
気温 17°C
湿度 94%
気圧 1020 hPa
視程: 1400m
高度200ftの雲はほとんどない
高度500ftの雲は散在している
高度3300ftの曇り
小雨, 靄

METAR: ZUCK 210400Z 30003MPS 260V320 1400 R20R/2000 R20L/1900 R21/2000 -RA BR FEW002 SCT005 OVC033 17/16 Q1020 BECMG TL0530 1600

時間: 13:03 (05:03 UTC)

予報

当レポートは9時間59分前の19:04(UTC)に作成
予報は21日の 00時(UTC)から 21日の 24時(UTC)まで有効
南/南西の風 6kt
視程: 5000m
高度3000ftの雲は散在している
21日の 11時(UTC)から 21日の 12時(UTC)まで徐々に
視程: 3000m
高度400ftの雲はほとんどない
高度1500ftの雲は散在している
高度3300ftの曇り
小雨, 靄

TAF: ZUCK 201904Z 2100/2124 20003MPS 5000 BR SCT030 TX19/2107Z TN15/2121Z BECMG 2111/2112 3000 -RA BR FEW004 SCT015 OVC033

4,000以上の空港の気象観測と天気予報(METAR報とTAF報)

利用可能な観測所は地図上に黄色い丸と赤い丸で示す。

丸の上にカーソルを重ねると観測所名を参照できる。

次にクリックすると気象観測と天気予報を参照できる。

マップの切り替え:黒色「×」印の緑ボタンをクリックして拡大、「-」印の緑ボタンをクリックして縮小、緑色の三角印をクリックして隣りの地図に切り替え


METAR-TAF: